Time;durP1;ratioP1;P1;durP2;ratioP2;P2;SDS_P1;SDS_P2;PMS_P1;PMS_P2;Temp;Humidity;BMP_temperature;BMP_pressure;BME280_temperature;BME280_humidity;BME280_pressure;Samples;Min_cycle;Max_cycle;Signal;HPM_P1;HPM_P2
2021/12/13 00:09:05;;;;;;;0.20;0.10;;;9.20;99.90;;;;;;20906159;28;20651;-72
2021/12/13 00:19:12;;;;;;;0.20;0.10;;;9.10;99.90;;;;;;20904958;28;20204;-72
2021/12/13 00:29:21;;;;;;;0.20;0.10;;;8.90;99.90;;;;;;20921945;28;20597;-72
2021/12/13 00:39:27;;;;;;;0.20;0.00;;;8.70;99.90;;;;;;20920688;28;20208;-72
2021/12/13 00:49:36;;;;;;;0.20;0.10;;;8.50;99.90;;;;;;20920745;28;20331;-72
2021/12/13 00:59:42;;;;;;;0.20;0.00;;;8.50;99.90;;;;;;20920058;28;20292;-72
2021/12/13 01:10:23;;;;;;;0.20;0.00;;;8.70;99.90;;;;;;20945535;28;20228;-72
2021/12/13 01:20:42;;;;;;;0.20;0.10;;;9.20;99.90;;;;;;20916301;28;20315;-72
2021/12/13 01:30:50;;;;;;;0.20;0.10;;;9.10;99.90;;;;;;20835802;28;20222;-73
2021/12/13 01:40:55;;;;;;;0.20;0.00;;;9.20;99.90;;;;;;20835066;28;20229;-72
2021/12/13 01:51:10;;;;;;;0.20;0.10;;;9.20;99.90;;;;;;20832126;28;20225;-72
2021/12/13 02:01:19;;;;;;;0.20;0.03;;;9.20;99.90;;;;;;20842241;23;20228;-66
2021/12/13 02:11:25;;;;;;;0.20;0.00;;;9.20;99.90;;;;;;20829400;28;20190;-64
2021/12/13 02:21:34;;;;;;;0.20;0.00;;;9.20;99.90;;;;;;20829005;28;20824;-68
2021/12/13 02:31:41;;;;;;;0.20;0.10;;;9.00;99.90;;;;;;20828564;28;20198;-68
2021/12/13 02:41:47;;;;;;;3.90;1.03;;;8.90;99.90;;;;;;20826597;28;20214;-67
2021/12/13 02:51:56;;;;;;;0.20;0.10;;;9.00;99.90;;;;;;20827626;28;20197;-68
2021/12/13 03:02:04;;;;;;;0.20;0.10;;;8.80;99.90;;;;;;20826544;28;20244;-67
2021/12/13 03:12:14;;;;;;;0.20;0.13;;;8.80;99.90;;;;;;20825744;28;20558;-68
2021/12/13 03:22:43;;;;;;;0.53;0.53;;;8.80;99.90;;;;;;20823772;28;20257;-68
2021/12/13 03:32:54;;;;;;;0.20;0.10;;;8.60;99.90;;;;;;20808337;28;20285;-68
2021/12/13 03:43:04;;;;;;;0.20;0.10;;;8.60;99.90;;;;;;20824492;28;20232;-67
2021/12/13 03:53:12;;;;;;;0.20;0.10;;;8.60;99.90;;;;;;20824515;28;20281;-68
2021/12/13 04:03:18;;;;;;;0.20;0.10;;;8.70;99.90;;;;;;20867980;23;20233;-73
2021/12/13 04:13:30;;;;;;;0.20;0.00;;;8.70;99.90;;;;;;20918213;28;20190;-73
2021/12/13 04:23:37;;;;;;;0.20;0.10;;;8.70;99.90;;;;;;20922699;28;20217;-72
2021/12/13 04:33:44;;;;;;;0.20;0.10;;;8.60;99.90;;;;;;20921338;28;20198;-73
2021/12/13 04:43:48;;;;;;;0.20;0.10;;;8.50;99.90;;;;;;20921176;28;20304;-72
2021/12/13 04:53:53;;;;;;;0.20;0.10;;;8.50;99.90;;;;;;20920496;28;20198;-72
2021/12/13 05:04:02;;;;;;;0.20;0.10;;;8.60;99.90;;;;;;20891147;22;20321;-67
2021/12/13 05:14:08;;;;;;;0.20;0.10;;;8.50;99.90;;;;;;20879130;28;20272;-67
2021/12/13 05:24:15;;;;;;;0.20;0.00;;;8.50;99.90;;;;;;20888209;28;20254;-67
2021/12/13 05:34:21;;;;;;;0.20;0.10;;;8.50;99.90;;;;;;20832832;28;20707;-66
2021/12/13 05:44:28;;;;;;;0.20;0.10;;;8.60;99.90;;;;;;20831797;28;20686;-67
2021/12/13 05:54:38;;;;;;;0.20;0.10;;;8.50;99.90;;;;;;20830299;28;20652;-66
2021/12/13 06:04:46;;;;;;;1.53;1.43;;;8.50;99.90;;;;;;20829815;28;20317;-66
2021/12/13 06:14:51;;;;;;;0.20;0.10;;;8.50;99.90;;;;;;20879129;28;20189;-66
2021/12/13 06:24:58;;;;;;;0.20;0.10;;;8.40;99.90;;;;;;20909897;28;20221;-67
2021/12/13 06:35:35;;;;;;;0.20;0.00;;;8.40;99.90;;;;;;20892066;28;20601;-67
2021/12/13 06:45:46;;;;;;;0.20;0.10;;;8.50;99.90;;;;;;20907523;28;20251;-66
2021/12/13 06:55:50;;;;;;;0.20;0.10;;;8.40;99.90;;;;;;20905091;28;20217;-67
2021/12/13 07:05:58;;;;;;;0.20;0.10;;;8.50;99.90;;;;;;20898422;28;20236;-67
2021/12/13 07:16:06;;;;;;;0.20;0.10;;;8.60;99.90;;;;;;20840010;28;20686;-66
2021/12/13 07:26:11;;;;;;;0.20;0.10;;;8.60;99.90;;;;;;20816560;28;20245;-67
2021/12/13 07:36:19;;;;;;;0.20;0.10;;;8.70;99.90;;;;;;20738158;28;20723;-67
2021/12/13 07:46:31;;;;;;;0.20;0.10;;;8.90;99.90;;;;;;20747522;28;20241;-66
2021/12/13 07:56:43;;;;;;;3.13;2.93;;;9.10;99.90;;;;;;20819448;28;20198;-68
2021/12/13 08:06:51;;;;;;;0.20;0.10;;;9.40;99.90;;;;;;20830067;28;20726;-68
2021/12/13 08:16:55;;;;;;;0.20;0.20;;;9.80;99.90;;;;;;20873548;28;20248;-69
2021/12/13 08:27:08;;;;;;;0.20;0.00;;;10.10;99.90;;;;;;20816709;28;20309;-68
2021/12/13 08:37:16;;;;;;;0.20;0.10;;;10.40;99.90;;;;;;20826021;28;20207;-69
2021/12/13 08:47:25;;;;;;;0.20;0.10;;;10.80;99.90;;;;;;20828714;28;20228;-67
2021/12/13 08:57:47;;;;;;;0.20;0.10;;;11.20;99.90;;;;;;20832104;28;20283;-68
2021/12/13 09:07:57;;;;;;;0.20;0.10;;;11.70;99.90;;;;;;20831973;28;20336;-68
2021/12/13 09:18:01;;;;;;;0.20;0.10;;;12.30;99.90;;;;;;20908790;28;20205;-67
2021/12/13 09:28:12;;;;;;;0.20;0.00;;;12.80;99.90;;;;;;20910658;28;20236;-66
2021/12/13 09:38:33;;;;;;;0.20;0.00;;;13.10;99.90;;;;;;20913258;28;20276;-68
2021/12/13 09:48:42;;;;;;;0.20;0.10;;;13.50;99.90;;;;;;20911803;28;20221;-68
2021/12/13 09:58:50;;;;;;;0.20;0.10;;;13.50;99.90;;;;;;20905877;28;20582;-69
2021/12/13 10:09:01;;;;;;;0.20;0.00;;;13.80;99.90;;;;;;20886619;28;20324;-69
2021/12/13 10:19:10;;;;;;;0.20;0.00;;;13.90;99.90;;;;;;20823517;28;20617;-69
2021/12/13 10:29:17;;;;;;;0.20;0.10;;;14.90;99.90;;;;;;20807547;28;20953;-70
2021/12/13 10:39:27;;;;;;;0.20;0.10;;;15.20;99.90;;;;;;20807477;28;20196;-67
2021/12/13 10:49:42;;;;;;;0.20;0.00;;;15.20;99.90;;;;;;20824129;28;20221;-67
2021/12/13 10:59:49;;;;;;;0.20;0.07;;;15.80;99.90;;;;;;20802792;28;20230;-70
2021/12/13 11:09:56;;;;;;;0.20;0.00;;;16.30;99.90;;;;;;20832903;28;20282;-68
2021/12/13 11:20:04;;;;;;;0.20;0.10;;;16.90;99.90;;;;;;20909643;28;20193;-68
2021/12/13 11:30:13;;;;;;;0.43;0.37;;;17.30;99.90;;;;;;20920874;28;20710;-68
2021/12/13 11:40:46;;;;;;;0.20;0.10;;;17.50;99.90;;;;;;20920079;28;20189;-67
2021/12/13 11:51:23;;;;;;;0.20;0.00;;;18.50;99.90;;;;;;20919204;28;20312;-68
2021/12/13 12:01:54;;;;;;;0.20;0.03;;;18.90;99.90;;;;;;20901625;28;20697;-68
2021/12/13 12:12:21;;;;;;;0.20;0.00;;;19.20;99.90;;;;;;20873900;28;20325;-69
2021/12/13 12:22:36;;;;;;;0.20;0.10;;;19.90;99.90;;;;;;20836782;28;20194;-69
2021/12/13 12:32:42;;;;;;;0.20;0.10;;;20.10;99.90;;;;;;20834559;28;20641;-67
2021/12/13 12:42:48;;;;;;;0.20;0.10;;;20.40;99.90;;;;;;20815406;28;20195;-69
2021/12/13 12:52:55;;;;;;;0.20;0.10;;;20.60;99.90;;;;;;20813876;28;20226;-67
2021/12/13 13:03:00;;;;;;;0.20;0.10;;;20.70;99.90;;;;;;20833255;28;20317;-69
2021/12/13 13:13:07;;;;;;;0.20;0.00;;;20.20;99.90;;;;;;20813184;28;20241;-66
2021/12/13 13:23:14;;;;;;;0.20;0.10;;;19.50;99.90;;;;;;20829373;28;20222;-67
2021/12/13 13:33:29;;;;;;;0.20;0.10;;;19.50;99.90;;;;;;20823199;28;20316;-68
2021/12/13 13:43:37;;;;;;;0.20;0.10;;;19.20;99.90;;;;;;20825293;28;20210;-67
2021/12/13 13:53:53;;;;;;;0.20;0.10;;;19.30;99.90;;;;;;20828903;28;20206;-67
2021/12/13 14:04:03;;;;;;;0.20;0.10;;;19.30;99.90;;;;;;20816413;28;20332;-67
2021/12/13 14:14:06;;;;;;;0.20;0.10;;;19.90;99.90;;;;;;20870067;28;20294;-68
2021/12/13 14:24:11;;;;;;;0.20;0.00;;;19.70;99.90;;;;;;20890668;28;20224;-68
2021/12/13 14:34:17;;;;;;;0.20;0.00;;;19.40;99.90;;;;;;20908722;28;20193;-69
2021/12/13 14:44:26;;;;;;;0.20;0.10;;;18.80;99.90;;;;;;20820826;28;20296;-67
2021/12/13 14:54:32;;;;;;;0.20;0.10;;;17.60;99.90;;;;;;20819179;28;20198;-68
2021/12/13 15:04:41;;;;;;;0.20;0.00;;;17.60;99.90;;;;;;20864332;28;20328;-67
2021/12/13 15:14:48;;;;;;;0.20;0.10;;;18.70;99.90;;;;;;20902402;28;20244;-66
2021/12/13 15:24:53;;;;;;;0.20;0.00;;;18.60;99.90;;;;;;20900668;28;20323;-67
2021/12/13 15:35:00;;;;;;;0.20;0.10;;;18.60;99.90;;;;;;20901826;28;20255;-66
2021/12/13 15:45:12;;;;;;;0.20;0.10;;;18.10;99.90;;;;;;20901106;28;20256;-66
2021/12/13 15:55:16;;;;;;;0.20;0.10;;;17.10;99.90;;;;;;20899004;28;20665;-66
2021/12/13 16:05:23;;;;;;;0.20;0.10;;;15.70;99.90;;;;;;20904086;28;20308;-66
2021/12/13 16:15:29;;;;;;;0.20;0.10;;;15.10;99.90;;;;;;20833650;28;20206;-66
2021/12/13 16:25:38;;;;;;;0.20;0.03;;;14.80;99.90;;;;;;20826426;28;20245;-66
2021/12/13 16:35:45;;;;;;;0.20;0.00;;;14.70;99.90;;;;;;20830529;28;20615;-67
2021/12/13 16:45:54;;;;;;;0.20;0.00;;;14.50;99.90;;;;;;20830393;28;20316;-66
2021/12/13 16:55:57;;;;;;;0.20;0.00;;;13.60;99.90;;;;;;20810279;28;20305;-67
2021/12/13 17:06:06;;;;;;;0.20;0.10;;;13.10;99.90;;;;;;20816326;28;21037;-66
2021/12/13 17:16:14;;;;;;;0.20;0.10;;;12.70;99.90;;;;;;20826734;28;20190;-66
2021/12/13 17:26:36;;;;;;;0.20;0.10;;;12.30;99.90;;;;;;20856027;28;20314;-67
2021/12/13 17:36:44;;;;;;;0.20;0.10;;;12.10;99.90;;;;;;20895596;28;20636;-66
2021/12/13 17:46:50;;;;;;;0.20;0.10;;;11.80;99.90;;;;;;20818889;28;20292;-66
2021/12/13 17:56:54;;;;;;;0.20;0.10;;;11.80;99.90;;;;;;20812390;28;20543;-69
2021/12/13 18:07:01;;;;;;;0.20;0.10;;;11.50;99.90;;;;;;20807677;28;20253;-68
2021/12/13 18:17:28;;;;;;;0.20;0.10;;;11.30;99.90;;;;;;20826498;28;20207;-67
2021/12/13 18:27:35;;;;;;;0.20;0.10;;;11.10;99.90;;;;;;20820850;28;20225;-69
2021/12/13 18:37:39;;;;;;;0.20;0.00;;;11.00;99.90;;;;;;20805184;28;20189;-67
2021/12/13 18:47:52;;;;;;;0.20;0.10;;;10.90;99.90;;;;;;20822923;28;20717;-67
2021/12/13 18:57:59;;;;;;;0.20;0.10;;;10.90;99.90;;;;;;20896820;28;20200;-67
2021/12/13 19:08:10;;;;;;;0.20;0.10;;;10.80;99.90;;;;;;20883678;28;20256;-67
2021/12/13 19:18:23;;;;;;;0.20;0.10;;;10.70;99.90;;;;;;20883632;28;20193;-66
2021/12/13 19:28:32;;;;;;;0.20;0.10;;;10.70;99.90;;;;;;20861941;28;20638;-67
2021/12/13 19:38:40;;;;;;;0.20;0.10;;;10.40;99.90;;;;;;20854591;28;20652;-67
2021/12/13 19:48:50;;;;;;;0.20;0.00;;;10.50;99.90;;;;;;20832751;28;20225;-66
2021/12/13 19:59:04;;;;;;;0.20;0.00;;;10.20;99.90;;;;;;20835307;28;20268;-65
2021/12/13 20:09:14;;;;;;;0.20;0.00;;;10.40;99.90;;;;;;20833789;28;20248;-66
2021/12/13 20:19:22;;;;;;;0.20;0.10;;;10.20;99.90;;;;;;20833969;28;20207;-66
2021/12/13 20:29:34;;;;;;;0.20;0.00;;;10.20;99.90;;;;;;20814512;28;20221;-66
2021/12/13 20:39:45;;;;;;;2.53;2.43;;;9.60;99.90;;;;;;20831063;28;20278;-66
2021/12/13 20:49:52;;;;;;;0.20;0.10;;;9.60;99.90;;;;;;20829660;28;20595;-65
2021/12/13 20:59:59;;;;;;;0.20;0.10;;;10.00;99.90;;;;;;20897725;28;20233;-65
2021/12/13 21:10:13;;;;;;;0.20;0.10;;;9.70;99.90;;;;;;20894884;28;20267;-65
2021/12/13 21:20:22;;;;;;;0.20;0.10;;;9.30;99.90;;;;;;20858386;28;20256;-65
2021/12/13 21:30:31;;;;;;;0.20;0.00;;;9.20;99.90;;;;;;20827961;28;20762;-65
2021/12/13 21:40:40;;;;;;;0.20;0.00;;;9.40;99.90;;;;;;20826986;28;20190;-65
2021/12/13 21:50:49;;;;;;;0.20;0.00;;;9.10;99.90;;;;;;20809413;28;20608;-66
2021/12/13 22:00:59;;;;;;;0.20;0.00;;;8.80;99.90;;;;;;20826039;28;20707;-65
2021/12/13 22:11:07;;;;;;;0.20;0.10;;;8.80;99.90;;;;;;20845728;28;20225;-67
2021/12/13 22:21:16;;;;;;;0.20;0.00;;;8.80;99.90;;;;;;20859402;28;20285;-66
2021/12/13 22:31:25;;;;;;;0.20;0.00;;;8.90;99.90;;;;;;20813883;28;20328;-66
2021/12/13 22:41:32;;;;;;;0.20;0.00;;;9.10;99.90;;;;;;20824127;28;20256;-66
2021/12/13 22:51:40;;;;;;;0.20;0.03;;;8.90;99.90;;;;;;20823294;28;20218;-67
2021/12/13 23:01:51;;;;;;;0.20;0.10;;;8.60;99.90;;;;;;20804193;28;20610;-66
2021/12/13 23:22:23;;;;;;;0.20;0.10;;;8.60;99.90;;;;;;20821354;28;20269;-66
2021/12/13 23:32:31;;;;;;;0.20;0.00;;;7.80;99.90;;;;;;20820198;28;20232;-66
2021/12/13 23:53:05;;;;;;;0.20;0.00;;;8.20;99.90;;;;;;20824041;28;20221;-65
